Terminal Aerodrome Forecast
Issued by NWS Cleveland, OH

Home | Current Version | Previous Version | Graphics & Text | Print | Product List | Glossary On
Versions: 1 2 3 4 5 6 7 8 9 10 11 12 13 14 15 16 17 18 19 20 21 22 23 24 25 26 27 28 29 30 31 32
000
FTUS41 KCLE 220500
TAFCLE
TAF
KCLE 220520Z 2206/2312 34004KT 6SM BR OVC005
      TEMPO 2206/2210 5SM -SN BR OVC007
     FM221500 31006KT 6SM BR OVC010
     FM222200 29006KT P6SM OVC018
     FM230200 20004KT P6SM BKN020=

USA.gov is the U.S. government's official web portal to all federal, state and local government web resources and services.